sensor_id;sensor_type;location;lat;lon;timestamp;P1;durP1;ratioP1;P2;durP2;ratioP2
58384;SDS011;44185;47.844;8.966;2023-04-06T00:00:04;14.90;;;7.25;;
58384;SDS011;44185;47.844;8.966;2023-04-06T00:02:30;14.68;;;7.50;;
58384;SDS011;44185;47.844;8.966;2023-04-06T00:04:55;14.75;;;8.23;;
58384;SDS011;44185;47.844;8.966;2023-04-06T00:07:21;14.38;;;7.90;;
58384;SDS011;44185;47.844;8.966;2023-04-06T00:09:46;14.68;;;6.97;;
58384;SDS011;44185;47.844;8.966;2023-04-06T00:12:12;15.52;;;8.10;;
58384;SDS011;44185;47.844;8.966;2023-04-06T00:14:37;13.32;;;7.28;;
58384;SDS011;44185;47.844;8.966;2023-04-06T00:17:04;13.55;;;7.28;;
58384;SDS011;44185;47.844;8.966;2023-04-06T00:19:30;12.32;;;6.72;;
58384;SDS011;44185;47.844;8.966;2023-04-06T00:21:55;14.38;;;7.20;;
58384;SDS011;44185;47.844;8.966;2023-04-06T00:24:21;14.68;;;7.30;;
58384;SDS011;44185;47.844;8.966;2023-04-06T00:26:46;12.27;;;6.50;;
58384;SDS011;44185;47.844;8.966;2023-04-06T00:29:12;12.57;;;6.07;;
58384;SDS011;44185;47.844;8.966;2023-04-06T00:31:37;17.75;;;7.10;;
58384;SDS011;44185;47.844;8.966;2023-04-06T00:34:05;13.57;;;7.53;;
58384;SDS011;44185;47.844;8.966;2023-04-06T00:36:30;12.40;;;6.70;;
58384;SDS011;44185;47.844;8.966;2023-04-06T00:38:56;14.45;;;6.88;;
58384;SDS011;44185;47.844;8.966;2023-04-06T00:41:21;15.93;;;7.65;;
58384;SDS011;44185;47.844;8.966;2023-04-06T00:43:47;13.65;;;6.82;;
58384;SDS011;44185;47.844;8.966;2023-04-06T00:46:13;14.38;;;6.50;;
58384;SDS011;44185;47.844;8.966;2023-04-06T00:48:38;12.38;;;6.70;;
58384;SDS011;44185;47.844;8.966;2023-04-06T00:51:05;14.85;;;7.00;;
58384;SDS011;44185;47.844;8.966;2023-04-06T00:53:31;14.88;;;7.93;;
58384;SDS011;44185;47.844;8.966;2023-04-06T00:55:56;15.54;;;7.40;;
58384;SDS011;44185;47.844;8.966;2023-04-06T00:58:22;13.45;;;7.25;;
58384;SDS011;44185;47.844;8.966;2023-04-06T01:00:48;11.93;;;6.57;;
58384;SDS011;44185;47.844;8.966;2023-04-06T01:03:14;12.75;;;7.10;;
58384;SDS011;44185;47.844;8.966;2023-04-06T01:05:39;13.27;;;6.60;;
58384;SDS011;44185;47.844;8.966;2023-04-06T01:08:06;14.20;;;7.22;;
58384;SDS011;44185;47.844;8.966;2023-04-06T01:10:32;12.90;;;6.95;;
58384;SDS011;44185;47.844;8.966;2023-04-06T01:12:57;14.55;;;6.53;;
58384;SDS011;44185;47.844;8.966;2023-04-06T01:15:23;13.10;;;6.80;;
58384;SDS011;44185;47.844;8.966;2023-04-06T01:17:50;14.13;;;6.43;;
58384;SDS011;44185;47.844;8.966;2023-04-06T01:20:16;13.48;;;6.85;;
58384;SDS011;44185;47.844;8.966;2023-04-06T01:22:43;13.98;;;6.30;;
58384;SDS011;44185;47.844;8.966;2023-04-06T01:25:09;10.98;;;6.20;;
58384;SDS011;44185;47.844;8.966;2023-04-06T01:27:35;14.23;;;6.70;;
58384;SDS011;44185;47.844;8.966;2023-04-06T01:30:00;12.40;;;6.65;;
58384;SDS011;44185;47.844;8.966;2023-04-06T01:32:26;12.43;;;6.65;;
58384;SDS011;44185;47.844;8.966;2023-04-06T01:34:52;11.63;;;6.68;;
58384;SDS011;44185;47.844;8.966;2023-04-06T01:37:17;13.88;;;6.93;;
58384;SDS011;44185;47.844;8.966;2023-04-06T01:39:44;13.75;;;6.78;;
58384;SDS011;44185;47.844;8.966;2023-04-06T01:42:09;11.65;;;7.00;;
58384;SDS011;44185;47.844;8.966;2023-04-06T01:44:35;11.15;;;6.07;;
58384;SDS011;44185;47.844;8.966;2023-04-06T01:47:00;13.20;;;6.95;;
58384;SDS011;44185;47.844;8.966;2023-04-06T01:49:26;12.30;;;6.55;;
58384;SDS011;44185;47.844;8.966;2023-04-06T01:51:51;11.95;;;6.28;;
58384;SDS011;44185;47.844;8.966;2023-04-06T01:54:17;13.63;;;6.85;;
58384;SDS011;44185;47.844;8.966;2023-04-06T01:56:44;13.70;;;6.35;;
58384;SDS011;44185;47.844;8.966;2023-04-06T01:59:09;11.77;;;6.88;;
58384;SDS011;44185;47.844;8.966;2023-04-06T02:01:35;14.65;;;7.05;;
58384;SDS011;44185;47.844;8.966;2023-04-06T02:04:00;12.48;;;6.25;;
58384;SDS011;44185;47.844;8.966;2023-04-06T02:06:26;13.90;;;7.00;;
58384;SDS011;44185;47.844;8.966;2023-04-06T02:08:51;14.00;;;6.85;;
58384;SDS011;44185;47.844;8.966;2023-04-06T02:11:16;13.40;;;6.07;;
58384;SDS011;44185;47.844;8.966;2023-04-06T02:13:43;14.13;;;7.28;;
58384;SDS011;44185;47.844;8.966;2023-04-06T02:16:09;12.63;;;6.78;;
58384;SDS011;44185;47.844;8.966;2023-04-06T02:18:34;11.75;;;6.60;;
58384;SDS011;44185;47.844;8.966;2023-04-06T02:21:00;11.88;;;6.40;;
58384;SDS011;44185;47.844;8.966;2023-04-06T02:23:25;11.68;;;6.75;;
58384;SDS011;44185;47.844;8.966;2023-04-06T02:25:51;11.95;;;5.97;;
58384;SDS011;44185;47.844;8.966;2023-04-06T02:28:16;14.65;;;6.78;;
58384;SDS011;44185;47.844;8.966;2023-04-06T02:30:43;13.13;;;6.60;;
58384;SDS011;44185;47.844;8.966;2023-04-06T02:33:08;13.38;;;7.13;;
58384;SDS011;44185;47.844;8.966;2023-04-06T02:35:34;13.57;;;6.53;;
58384;SDS011;44185;47.844;8.966;2023-04-06T02:37:59;13.32;;;6.18;;
58384;SDS011;44185;47.844;8.966;2023-04-06T02:40:25;14.10;;;6.60;;
58384;SDS011;44185;47.844;8.966;2023-04-06T02:42:50;10.57;;;5.95;;
58384;SDS011;44185;47.844;8.966;2023-04-06T02:45:16;14.75;;;6.43;;
58384;SDS011;44185;47.844;8.966;2023-04-06T02:47:43;12.25;;;6.65;;
58384;SDS011;44185;47.844;8.966;2023-04-06T02:50:09;14.38;;;7.90;;
58384;SDS011;44185;47.844;8.966;2023-04-06T02:52:34;12.30;;;6.63;;
58384;SDS011;44185;47.844;8.966;2023-04-06T02:55:00;13.50;;;6.78;;
58384;SDS011;44185;47.844;8.966;2023-04-06T02:57:25;14.07;;;7.18;;
58384;SDS011;44185;47.844;8.966;2023-04-06T02:59:51;15.90;;;7.10;;
58384;SDS011;44185;47.844;8.966;2023-04-06T03:02:16;10.13;;;6.38;;
58384;SDS011;44185;47.844;8.966;2023-04-06T03:04:43;11.77;;;6.50;;
58384;SDS011;44185;47.844;8.966;2023-04-06T03:07:09;14.10;;;6.88;;
58384;SDS011;44185;47.844;8.966;2023-04-06T03:09:36;11.05;;;5.85;;
58384;SDS011;44185;47.844;8.966;2023-04-06T03:12:02;12.60;;;6.00;;
58384;SDS011;44185;47.844;8.966;2023-04-06T03:14:28;11.63;;;6.20;;
58384;SDS011;44185;47.844;8.966;2023-04-06T03:16:53;14.93;;;6.70;;
58384;SDS011;44185;47.844;8.966;2023-04-06T03:19:19;12.93;;;6.30;;
58384;SDS011;44185;47.844;8.966;2023-04-06T03:21:45;14.75;;;7.20;;
58384;SDS011;44185;47.844;8.966;2023-04-06T03:24:11;13.48;;;6.60;;
58384;SDS011;44185;47.844;8.966;2023-04-06T03:26:36;13.18;;;6.82;;
58384;SDS011;44185;47.844;8.966;2023-04-06T03:29:02;13.93;;;7.75;;
58384;SDS011;44185;47.844;8.966;2023-04-06T03:31:27;12.90;;;6.20;;
58384;SDS011;44185;47.844;8.966;2023-04-06T03:33:53;14.20;;;6.93;;
58384;SDS011;44185;47.844;8.966;2023-04-06T03:36:19;11.90;;;6.03;;
58384;SDS011;44185;47.844;8.966;2023-04-06T03:38:46;13.38;;;6.80;;
58384;SDS011;44185;47.844;8.966;2023-04-06T03:41:12;13.68;;;6.60;;
58384;SDS011;44185;47.844;8.966;2023-04-06T03:43:37;14.10;;;6.70;;
58384;SDS011;44185;47.844;8.966;2023-04-06T03:46:03;16.70;;;7.35;;
58384;SDS011;44185;47.844;8.966;2023-04-06T03:48:28;12.75;;;6.50;;
58384;SDS011;44185;47.844;8.966;2023-04-06T03:50:54;13.80;;;7.07;;
58384;SDS011;44185;47.844;8.966;2023-04-06T03:53:19;12.60;;;6.70;;
58384;SDS011;44185;47.844;8.966;2023-04-06T03:55:46;12.80;;;6.05;;
58384;SDS011;44185;47.844;8.966;2023-04-06T03:58:12;12.38;;;6.45;;
58384;SDS011;44185;47.844;8.966;2023-04-06T04:00:37;12.80;;;6.50;;
58384;SDS011;44185;47.844;8.966;2023-04-06T04:03:03;13.75;;;6.47;;
58384;SDS011;44185;47.844;8.966;2023-04-06T04:05:28;12.00;;;6.20;;
58384;SDS011;44185;47.844;8.966;2023-04-06T04:07:54;13.70;;;6.95;;
58384;SDS011;44185;47.844;8.966;2023-04-06T04:10:19;11.07;;;6.40;;
58384;SDS011;44185;47.844;8.966;2023-04-06T04:12:46;11.70;;;6.50;;
58384;SDS011;44185;47.844;8.966;2023-04-06T04:15:11;13.20;;;6.60;;
58384;SDS011;44185;47.844;8.966;2023-04-06T04:17:37;11.43;;;5.93;;
58384;SDS011;44185;47.844;8.966;2023-04-06T04:20:03;12.18;;;6.00;;
58384;SDS011;44185;47.844;8.966;2023-04-06T04:22:29;11.68;;;6.28;;
58384;SDS011;44185;47.844;8.966;2023-04-06T04:24:55;11.90;;;6.50;;
58384;SDS011;44185;47.844;8.966;2023-04-06T04:27:20;12.52;;;5.70;;
58384;SDS011;44185;47.844;8.966;2023-04-06T04:29:47;10.25;;;6.22;;
58384;SDS011;44185;47.844;8.966;2023-04-06T04:32:12;11.98;;;6.68;;
58384;SDS011;44185;47.844;8.966;2023-04-06T04:34:38;16.08;;;7.55;;
58384;SDS011;44185;47.844;8.966;2023-04-06T04:37:04;12.02;;;6.55;;
58384;SDS011;44185;47.844;8.966;2023-04-06T04:39:29;13.30;;;6.70;;
58384;SDS011;44185;47.844;8.966;2023-04-06T04:41:55;16.20;;;6.88;;
58384;SDS011;44185;47.844;8.966;2023-04-06T04:44:20;11.85;;;6.20;;
58384;SDS011;44185;47.844;8.966;2023-04-06T04:46:47;14.80;;;6.55;;
58384;SDS011;44185;47.844;8.966;2023-04-06T04:49:12;10.77;;;5.35;;
58384;SDS011;44185;47.844;8.966;2023-04-06T04:51:38;13.60;;;6.68;;
58384;SDS011;44185;47.844;8.966;2023-04-06T04:54:04;15.35;;;7.45;;
58384;SDS011;44185;47.844;8.966;2023-04-06T04:56:29;14.23;;;6.65;;
58384;SDS011;44185;47.844;8.966;2023-04-06T04:58:55;14.43;;;7.18;;
58384;SDS011;44185;47.844;8.966;2023-04-06T05:01:20;14.13;;;7.03;;
58384;SDS011;44185;47.844;8.966;2023-04-06T05:03:47;12.98;;;6.93;;
58384;SDS011;44185;47.844;8.966;2023-04-06T05:06:13;11.77;;;6.25;;
58384;SDS011;44185;47.844;8.966;2023-04-06T05:08:38;15.63;;;7.38;;
58384;SDS011;44185;47.844;8.966;2023-04-06T05:11:04;13.80;;;7.28;;
58384;SDS011;44185;47.844;8.966;2023-04-06T05:13:29;13.68;;;6.44;;
58384;SDS011;44185;47.844;8.966;2023-04-06T05:15:55;12.27;;;6.07;;
58384;SDS011;44185;47.844;8.966;2023-04-06T05:18:20;14.07;;;6.53;;
58384;SDS011;44185;47.844;8.966;2023-04-06T05:20:47;12.70;;;6.07;;
58384;SDS011;44185;47.844;8.966;2023-04-06T05:23:13;11.18;;;6.53;;
58384;SDS011;44185;47.844;8.966;2023-04-06T05:25:38;13.70;;;6.95;;
58384;SDS011;44185;47.844;8.966;2023-04-06T05:28:04;17.05;;;7.72;;
58384;SDS011;44185;47.844;8.966;2023-04-06T05:30:29;15.63;;;7.20;;
58384;SDS011;44185;47.844;8.966;2023-04-06T05:32:55;14.40;;;7.82;;
58384;SDS011;44185;47.844;8.966;2023-04-06T05:35:21;13.15;;;7.05;;
58384;SDS011;44185;47.844;8.966;2023-04-06T05:37:48;15.68;;;7.40;;
58384;SDS011;44185;47.844;8.966;2023-04-06T05:40:13;15.35;;;8.02;;
58384;SDS011;44185;47.844;8.966;2023-04-06T05:42:39;14.25;;;7.03;;
58384;SDS011;44185;47.844;8.966;2023-04-06T05:45:05;15.20;;;7.75;;
58384;SDS011;44185;47.844;8.966;2023-04-06T05:47:32;13.73;;;7.80;;
58384;SDS011;44185;47.844;8.966;2023-04-06T05:49:57;14.57;;;7.20;;
58384;SDS011;44185;47.844;8.966;2023-04-06T05:52:23;14.13;;;7.32;;
58384;SDS011;44185;47.844;8.966;2023-04-06T05:54:50;13.32;;;7.63;;
58384;SDS011;44185;47.844;8.966;2023-04-06T05:57:15;15.05;;;8.32;;
58384;SDS011;44185;47.844;8.966;2023-04-06T05:59:41;13.65;;;7.57;;
58384;SDS011;44185;47.844;8.966;2023-04-06T06:02:06;15.68;;;8.23;;
58384;SDS011;44185;47.844;8.966;2023-04-06T06:04:32;15.00;;;7.72;;
58384;SDS011;44185;47.844;8.966;2023-04-06T06:06:57;15.13;;;8.32;;
58384;SDS011;44185;47.844;8.966;2023-04-06T06:09:23;15.48;;;8.15;;
58384;SDS011;44185;47.844;8.966;2023-04-06T06:11:50;16.48;;;8.45;;
58384;SDS011;44185;47.844;8.966;2023-04-06T06:14:15;16.58;;;8.77;;
58384;SDS011;44185;47.844;8.966;2023-04-06T06:16:41;15.50;;;8.95;;
58384;SDS011;44185;47.844;8.966;2023-04-06T06:19:06;14.25;;;7.82;;
58384;SDS011;44185;47.844;8.966;2023-04-06T06:21:32;16.98;;;9.27;;
58384;SDS011;44185;47.844;8.966;2023-04-06T06:23:57;15.80;;;7.95;;
58384;SDS011;44185;47.844;8.966;2023-04-06T06:26:23;13.95;;;7.90;;
58384;SDS011;44185;47.844;8.966;2023-04-06T06:28:50;16.23;;;8.35;;
58384;SDS011;44185;47.844;8.966;2023-04-06T06:31:15;16.13;;;7.93;;
58384;SDS011;44185;47.844;8.966;2023-04-06T06:33:41;13.60;;;7.55;;
58384;SDS011;44185;47.844;8.966;2023-04-06T06:36:07;14.88;;;7.95;;
58384;SDS011;44185;47.844;8.966;2023-04-06T06:38:32;18.14;;;8.08;;
58384;SDS011;44185;47.844;8.966;2023-04-06T06:40:58;14.98;;;8.70;;
58384;SDS011;44185;47.844;8.966;2023-04-06T06:43:23;14.18;;;7.53;;
58384;SDS011;44185;47.844;8.966;2023-04-06T06:45:50;14.07;;;7.45;;
58384;SDS011;44185;47.844;8.966;2023-04-06T06:48:16;15.07;;;7.90;;
58384;SDS011;44185;47.844;8.966;2023-04-06T06:50:41;13.25;;;7.85;;
58384;SDS011;44185;47.844;8.966;2023-04-06T06:53:07;17.30;;;8.55;;
58384;SDS011;44185;47.844;8.966;2023-04-06T06:55:32;15.60;;;8.13;;
58384;SDS011;44185;47.844;8.966;2023-04-06T06:57:57;16.20;;;7.63;;
58384;SDS011;44185;47.844;8.966;2023-04-06T07:00:23;15.13;;;7.53;;
58384;SDS011;44185;47.844;8.966;2023-04-06T07:02:50;14.95;;;7.85;;
58384;SDS011;44185;47.844;8.966;2023-04-06T07:05:16;13.45;;;7.57;;
58384;SDS011;44185;47.844;8.966;2023-04-06T07:07:41;14.48;;;7.68;;
58384;SDS011;44185;47.844;8.966;2023-04-06T07:10:07;12.20;;;7.03;;
58384;SDS011;44185;47.844;8.966;2023-04-06T07:12:33;17.27;;;7.93;;
58384;SDS011;44185;47.844;8.966;2023-04-06T07:14:59;15.75;;;7.70;;
58384;SDS011;44185;47.844;8.966;2023-04-06T07:17:25;15.27;;;7.68;;
58384;SDS011;44185;47.844;8.966;2023-04-06T07:19:52;15.25;;;8.55;;
58384;SDS011;44185;47.844;8.966;2023-04-06T07:22:17;15.57;;;8.02;;
58384;SDS011;44185;47.844;8.966;2023-04-06T07:24:43;15.40;;;7.13;;
58384;SDS011;44185;47.844;8.966;2023-04-06T07:27:08;16.63;;;8.02;;
58384;SDS011;44185;47.844;8.966;2023-04-06T07:29:34;18.42;;;9.15;;
58384;SDS011;44185;47.844;8.966;2023-04-06T07:31:59;15.70;;;8.50;;
58384;SDS011;44185;47.844;8.966;2023-04-06T07:34:25;17.33;;;7.78;;
58384;SDS011;44185;47.844;8.966;2023-04-06T07:36:52;19.13;;;9.18;;
58384;SDS011;44185;47.844;8.966;2023-04-06T07:39:17;16.05;;;8.52;;
58384;SDS011;44185;47.844;8.966;2023-04-06T07:41:43;11.50;;;5.97;;
58384;SDS011;44185;47.844;8.966;2023-04-06T07:44:08;17.25;;;8.77;;
58384;SDS011;44185;47.844;8.966;2023-04-06T07:46:34;16.55;;;8.57;;
58384;SDS011;44185;47.844;8.966;2023-04-06T07:49:00;17.20;;;9.48;;
58384;SDS011;44185;47.844;8.966;2023-04-06T07:51:25;14.98;;;9.00;;
58384;SDS011;44185;47.844;8.966;2023-04-06T07:53:52;15.32;;;8.02;;
58384;SDS011;44185;47.844;8.966;2023-04-06T07:56:18;15.27;;;8.82;;
58384;SDS011;44185;47.844;8.966;2023-04-06T07:58:43;14.95;;;8.73;;
58384;SDS011;44185;47.844;8.966;2023-04-06T08:01:09;13.07;;;8.05;;
58384;SDS011;44185;47.844;8.966;2023-04-06T08:03:35;13.32;;;7.45;;
58384;SDS011;44185;47.844;8.966;2023-04-06T08:06:01;13.55;;;7.95;;
58384;SDS011;44185;47.844;8.966;2023-04-06T08:08:27;15.60;;;8.32;;
58384;SDS011;44185;47.844;8.966;2023-04-06T08:10:54;14.75;;;7.93;;
58384;SDS011;44185;47.844;8.966;2023-04-06T08:13:19;15.50;;;8.40;;
58384;SDS011;44185;47.844;8.966;2023-04-06T08:15:45;17.00;;;9.10;;
58384;SDS011;44185;47.844;8.966;2023-04-06T08:18:11;15.13;;;7.68;;
58384;SDS011;44185;47.844;8.966;2023-04-06T08:20:36;14.95;;;7.75;;
58384;SDS011;44185;47.844;8.966;2023-04-06T08:23:02;18.77;;;8.05;;
58384;SDS011;44185;47.844;8.966;2023-04-06T08:25:28;17.48;;;7.80;;
58384;SDS011;44185;47.844;8.966;2023-04-06T08:27:55;14.15;;;8.00;;
58384;SDS011;44185;47.844;8.966;2023-04-06T08:30:21;15.38;;;8.15;;
58384;SDS011;44185;47.844;8.966;2023-04-06T08:32:46;12.48;;;7.18;;
58384;SDS011;44185;47.844;8.966;2023-04-06T08:35:12;13.00;;;8.05;;
58384;SDS011;44185;47.844;8.966;2023-04-06T08:37:37;14.05;;;7.18;;
58384;SDS011;44185;47.844;8.966;2023-04-06T08:40:03;15.73;;;7.80;;
58384;SDS011;44185;47.844;8.966;2023-04-06T08:42:31;15.23;;;8.32;;
58384;SDS011;44185;47.844;8.966;2023-04-06T08:44:59;15.55;;;7.70;;
58384;SDS011;44185;47.844;8.966;2023-04-06T08:47:25;15.45;;;7.70;;
58384;SDS011;44185;47.844;8.966;2023-04-06T08:49:51;17.38;;;7.95;;
58384;SDS011;44185;47.844;8.966;2023-04-06T08:52:18;17.55;;;7.70;;
58384;SDS011;44185;47.844;8.966;2023-04-06T08:54:44;14.73;;;7.95;;
58384;SDS011;44185;47.844;8.966;2023-04-06T08:57:10;15.77;;;6.93;;
58384;SDS011;44185;47.844;8.966;2023-04-06T08:59:37;14.10;;;7.82;;
58384;SDS011;44185;47.844;8.966;2023-04-06T09:02:05;14.60;;;7.80;;
58384;SDS011;44185;47.844;8.966;2023-04-06T09:04:32;15.10;;;7.63;;
58384;SDS011;44185;47.844;8.966;2023-04-06T09:06:58;14.77;;;8.23;;
58384;SDS011;44185;47.844;8.966;2023-04-06T09:09:24;14.07;;;7.70;;
58384;SDS011;44185;47.844;8.966;2023-04-06T09:11:49;13.68;;;7.10;;
58384;SDS011;44185;47.844;8.966;2023-04-06T09:14:16;13.23;;;7.05;;
58384;SDS011;44185;47.844;8.966;2023-04-06T09:16:42;14.15;;;6.82;;
58384;SDS011;44185;47.844;8.966;2023-04-06T09:19:10;16.23;;;7.82;;
58384;SDS011;44185;47.844;8.966;2023-04-06T09:21:37;14.70;;;7.28;;
58384;SDS011;44185;47.844;8.966;2023-04-06T09:24:03;14.05;;;7.15;;
58384;SDS011;44185;47.844;8.966;2023-04-06T09:26:29;14.80;;;6.88;;
58384;SDS011;44185;47.844;8.966;2023-04-06T09:28:55;7.40;;;4.53;;
58384;SDS011;44185;47.844;8.966;2023-04-06T09:31:23;13.20;;;7.05;;
58384;SDS011;44185;47.844;8.966;2023-04-06T09:33:49;10.45;;;5.15;;
58384;SDS011;44185;47.844;8.966;2023-04-06T09:36:16;14.98;;;6.53;;
58384;SDS011;44185;47.844;8.966;2023-04-06T09:38:51;12.93;;;6.53;;
58384;SDS011;44185;47.844;8.966;2023-04-06T09:41:20;12.50;;;6.28;;
58384;SDS011;44185;47.844;8.966;2023-04-06T09:43:46;15.80;;;6.90;;
58384;SDS011;44185;47.844;8.966;2023-04-06T09:46:12;15.63;;;7.47;;
58384;SDS011;44185;47.844;8.966;2023-04-06T09:48:38;11.07;;;5.22;;
58384;SDS011;44185;47.844;8.966;2023-04-06T09:51:04;13.68;;;7.40;;
58384;SDS011;44185;47.844;8.966;2023-04-06T09:53:33;13.27;;;6.38;;
58384;SDS011;44185;47.844;8.966;2023-04-06T09:56:04;11.07;;;5.43;;
58384;SDS011;44185;47.844;8.966;2023-04-06T09:58:33;12.80;;;6.00;;
58384;SDS011;44185;47.844;8.966;2023-04-06T10:01:03;12.77;;;5.60;;
58384;SDS011;44185;47.844;8.966;2023-04-06T10:03:36;10.85;;;5.13;;
58384;SDS011;44185;47.844;8.966;2023-04-06T10:06:09;9.07;;;4.85;;
58384;SDS011;44185;47.844;8.966;2023-04-06T10:08:38;11.38;;;5.70;;
58384;SDS011;44185;47.844;8.966;2023-04-06T10:11:05;9.93;;;5.15;;
58384;SDS011;44185;47.844;8.966;2023-04-06T10:13:31;12.20;;;5.07;;
58384;SDS011;44185;47.844;8.966;2023-04-06T10:15:57;10.48;;;4.97;;
58384;SDS011;44185;47.844;8.966;2023-04-06T10:18:25;9.13;;;4.80;;
58384;SDS011;44185;47.844;8.966;2023-04-06T10:20:51;8.85;;;5.10;;
58384;SDS011;44185;47.844;8.966;2023-04-06T10:23:22;10.48;;;4.82;;
58384;SDS011;44185;47.844;8.966;2023-04-06T10:25:53;8.32;;;5.28;;
58384;SDS011;44185;47.844;8.966;2023-04-06T10:28:20;9.95;;;5.00;;
58384;SDS011;44185;47.844;8.966;2023-04-06T10:30:45;10.43;;;4.85;;
58384;SDS011;44185;47.844;8.966;2023-04-06T10:33:14;11.93;;;5.18;;
58384;SDS011;44185;47.844;8.966;2023-04-06T10:35:40;11.05;;;5.07;;
58384;SDS011;44185;47.844;8.966;2023-04-06T10:38:05;8.55;;;4.43;;
58384;SDS011;44185;47.844;8.966;2023-04-06T10:40:31;11.25;;;4.88;;
58384;SDS011;44185;47.844;8.966;2023-04-06T10:43:07;9.70;;;4.80;;
58384;SDS011;44185;47.844;8.966;2023-04-06T10:45:34;9.43;;;5.10;;
58384;SDS011;44185;47.844;8.966;2023-04-06T10:48:00;11.23;;;5.30;;
58384;SDS011;44185;47.844;8.966;2023-04-06T10:50:37;8.07;;;4.05;;
58384;SDS011;44185;47.844;8.966;2023-04-06T10:53:04;6.75;;;3.85;;
58384;SDS011;44185;47.844;8.966;2023-04-06T10:55:29;8.15;;;4.03;;
58384;SDS011;44185;47.844;8.966;2023-04-06T10:57:56;9.52;;;4.57;;
58384;SDS011;44185;47.844;8.966;2023-04-06T11:00:23;7.65;;;4.68;;
58384;SDS011;44185;47.844;8.966;2023-04-06T11:02:48;9.40;;;4.30;;
58384;SDS011;44185;47.844;8.966;2023-04-06T11:05:14;10.65;;;4.97;;
58384;SDS011;44185;47.844;8.966;2023-04-06T11:07:40;10.63;;;5.15;;
58384;SDS011;44185;47.844;8.966;2023-04-06T11:10:06;11.02;;;5.47;;
58384;SDS011;44185;47.844;8.966;2023-04-06T11:12:32;10.93;;;5.07;;
58384;SDS011;44185;47.844;8.966;2023-04-06T11:14:58;10.63;;;5.07;;
58384;SDS011;44185;47.844;8.966;2023-04-06T11:17:27;7.55;;;4.85;;
58384;SDS011;44185;47.844;8.966;2023-04-06T11:19:52;10.70;;;5.47;;
58384;SDS011;44185;47.844;8.966;2023-04-06T11:22:18;10.18;;;5.45;;
58384;SDS011;44185;47.844;8.966;2023-04-06T11:24:43;10.10;;;5.43;;
58384;SDS011;44185;47.844;8.966;2023-04-06T11:27:09;7.68;;;3.75;;
58384;SDS011;44185;47.844;8.966;2023-04-06T11:29:35;7.53;;;4.10;;
58384;SDS011;44185;47.844;8.966;2023-04-06T11:32:01;9.63;;;4.85;;
58384;SDS011;44185;47.844;8.966;2023-04-06T11:34:29;10.20;;;5.15;;
58384;SDS011;44185;47.844;8.966;2023-04-06T11:36:56;9.38;;;4.72;;
58384;SDS011;44185;47.844;8.966;2023-04-06T11:39:23;10.10;;;5.07;;
58384;SDS011;44185;47.844;8.966;2023-04-06T11:41:49;10.43;;;5.05;;
58384;SDS011;44185;47.844;8.966;2023-04-06T11:44:15;6.20;;;3.83;;
58384;SDS011;44185;47.844;8.966;2023-04-06T11:46:52;5.97;;;3.42;;
58384;SDS011;44185;47.844;8.966;2023-04-06T11:49:17;10.20;;;5.22;;
58384;SDS011;44185;47.844;8.966;2023-04-06T11:51:45;7.28;;;4.03;;
58384;SDS011;44185;47.844;8.966;2023-04-06T11:54:11;11.40;;;4.80;;
58384;SDS011;44185;47.844;8.966;2023-04-06T11:56:36;10.07;;;5.20;;
58384;SDS011;44185;47.844;8.966;2023-04-06T11:59:02;5.53;;;3.63;;
58384;SDS011;44185;47.844;8.966;2023-04-06T12:01:28;10.30;;;5.05;;
58384;SDS011;44185;47.844;8.966;2023-04-06T12:03:53;11.15;;;5.10;;
58384;SDS011;44185;47.844;8.966;2023-04-06T12:06:19;8.40;;;4.85;;
58384;SDS011;44185;47.844;8.966;2023-04-06T12:08:46;10.68;;;5.30;;
58384;SDS011;44185;47.844;8.966;2023-04-06T12:11:11;8.02;;;4.75;;
58384;SDS011;44185;47.844;8.966;2023-04-06T12:13:37;8.60;;;4.97;;
58384;SDS011;44185;47.844;8.966;2023-04-06T12:16:02;11.13;;;5.85;;
58384;SDS011;44185;47.844;8.966;2023-04-06T12:18:29;9.70;;;5.15;;
58384;SDS011;44185;47.844;8.966;2023-04-06T12:20:55;12.98;;;5.57;;
58384;SDS011;44185;47.844;8.966;2023-04-06T12:23:20;13.30;;;5.38;;
58384;SDS011;44185;47.844;8.966;2023-04-06T12:25:47;12.07;;;5.78;;
58384;SDS011;44185;47.844;8.966;2023-04-06T12:28:12;9.90;;;5.20;;
58384;SDS011;44185;47.844;8.966;2023-04-06T12:30:38;8.77;;;5.10;;
58384;SDS011;44185;47.844;8.966;2023-04-06T12:33:04;9.35;;;5.07;;
58384;SDS011;44185;47.844;8.966;2023-04-06T12:35:32;6.20;;;3.30;;
58384;SDS011;44185;47.844;8.966;2023-04-06T12:37:58;12.00;;;6.20;;
58384;SDS011;44185;47.844;8.966;2023-04-06T12:40:24;10.82;;;5.50;;
58384;SDS011;44185;47.844;8.966;2023-04-06T12:42:51;9.98;;;5.35;;
58384;SDS011;44185;47.844;8.966;2023-04-06T12:45:16;10.05;;;5.13;;
58384;SDS011;44185;47.844;8.966;2023-04-06T12:47:42;9.10;;;4.57;;
58384;SDS011;44185;47.844;8.966;2023-04-06T12:50:07;9.90;;;5.38;;
58384;SDS011;44185;47.844;8.966;2023-04-06T12:52:33;7.88;;;4.55;;
58384;SDS011;44185;47.844;8.966;2023-04-06T12:54:59;9.23;;;4.82;;
58384;SDS011;44185;47.844;8.966;2023-04-06T12:57:25;10.35;;;4.72;;
58384;SDS011;44185;47.844;8.966;2023-04-06T12:59:51;10.18;;;5.32;;
58384;SDS011;44185;47.844;8.966;2023-04-06T13:02:17;8.10;;;4.65;;
58384;SDS011;44185;47.844;8.966;2023-04-06T13:04:42;12.23;;;5.38;;
58384;SDS011;44185;47.844;8.966;2023-04-06T13:07:08;9.93;;;5.25;;
58384;SDS011;44185;47.844;8.966;2023-04-06T13:09:34;9.43;;;5.13;;
58384;SDS011;44185;47.844;8.966;2023-04-06T13:11:59;9.90;;;5.68;;
58384;SDS011;44185;47.844;8.966;2023-04-06T13:14:25;10.98;;;5.35;;
58384;SDS011;44185;47.844;8.966;2023-04-06T13:16:52;10.48;;;5.38;;
58384;SDS011;44185;47.844;8.966;2023-04-06T13:19:17;11.70;;;5.35;;
58384;SDS011;44185;47.844;8.966;2023-04-06T13:21:43;11.98;;;5.78;;
58384;SDS011;44185;47.844;8.966;2023-04-06T13:24:08;11.35;;;5.57;;
58384;SDS011;44185;47.844;8.966;2023-04-06T13:26:34;12.80;;;5.90;;
58384;SDS011;44185;47.844;8.966;2023-04-06T13:29:00;10.40;;;5.43;;
58384;SDS011;44185;47.844;8.966;2023-04-06T13:31:25;10.52;;;5.00;;
58384;SDS011;44185;47.844;8.966;2023-04-06T13:33:52;9.25;;;4.57;;
58384;SDS011;44185;47.844;8.966;2023-04-06T13:36:18;11.15;;;5.70;;
58384;SDS011;44185;47.844;8.966;2023-04-06T13:38:43;14.98;;;6.43;;
58384;SDS011;44185;47.844;8.966;2023-04-06T13:41:09;12.15;;;5.32;;
58384;SDS011;44185;47.844;8.966;2023-04-06T13:43:34;9.60;;;4.85;;
58384;SDS011;44185;47.844;8.966;2023-04-06T13:46:00;9.50;;;4.80;;
58384;SDS011;44185;47.844;8.966;2023-04-06T13:48:25;11.75;;;5.07;;
58384;SDS011;44185;47.844;8.966;2023-04-06T13:50:52;12.82;;;5.95;;
58384;SDS011;44185;47.844;8.966;2023-04-06T13:53:18;11.95;;;5.53;;
58384;SDS011;44185;47.844;8.966;2023-04-06T13:55:43;11.43;;;5.47;;
58384;SDS011;44185;47.844;8.966;2023-04-06T13:58:09;12.35;;;5.80;;
58384;SDS011;44185;47.844;8.966;2023-04-06T14:00:34;7.90;;;4.45;;
58384;SDS011;44185;47.844;8.966;2023-04-06T14:03:00;12.45;;;5.32;;
58384;SDS011;44185;47.844;8.966;2023-04-06T14:05:25;9.15;;;4.90;;
58384;SDS011;44185;47.844;8.966;2023-04-06T14:07:52;9.50;;;4.97;;
58384;SDS011;44185;47.844;8.966;2023-04-06T14:10:17;9.32;;;5.15;;
58384;SDS011;44185;47.844;8.966;2023-04-06T14:12:43;8.90;;;4.40;;
58384;SDS011;44185;47.844;8.966;2023-04-06T14:15:10;8.70;;;4.95;;
58384;SDS011;44185;47.844;8.966;2023-04-06T14:17:36;11.20;;;5.75;;
58384;SDS011;44185;47.844;8.966;2023-04-06T14:20:02;10.18;;;5.28;;
58384;SDS011;44185;47.844;8.966;2023-04-06T14:22:28;9.27;;;4.63;;
58384;SDS011;44185;47.844;8.966;2023-04-06T14:24:55;9.95;;;5.43;;
58384;SDS011;44185;47.844;8.966;2023-04-06T14:27:20;9.90;;;5.55;;